Time;durP1;ratioP1;P1;durP2;ratioP2;P2;SDS_P1;SDS_P2;PMS_P1;PMS_P2;Temp;Humidity;BMP_temperature;BMP_pressure;BME280_temperature;BME280_humidity;BME280_pressure;Samples;Min_cycle;Max_cycle;Signal;HPM_P1;HPM_P2
2023/10/22 00:01:44;;;;;;;0.20;0.20;;;;;;;20.87;44.83;100780.94;4969760;28;20402;-92
2023/10/22 00:04:10;;;;;;;1.00;0.50;;;;;;;21.03;44.38;100787.47;4969641;28;20427;-88
2023/10/22 00:06:35;;;;;;;0.10;0.10;;;;;;;21.23;44.06;100781.69;4969658;28;20909;-91
2023/10/22 00:09:01;;;;;;;0.20;0.20;;;;;;;21.28;43.67;100777.22;4969226;28;20391;-88
2023/10/22 00:11:26;;;;;;;1.00;0.90;;;;;;;21.35;43.67;100783.28;4967942;28;20437;-88
2023/10/22 00:13:52;;;;;;;0.80;0.80;;;;;;;21.48;43.60;100779.53;4968221;28;20803;-83
2023/10/22 00:16:18;;;;;;;0.40;0.40;;;;;;;21.61;43.37;100793.78;4968227;28;20395;-86
2023/10/22 00:18:43;;;;;;;0.30;0.30;;;;;;;21.68;43.18;100795.28;4968382;28;20486;-92
2023/10/22 00:21:09;;;;;;;0.40;0.40;;;;;;;21.62;43.64;100798.94;4968970;28;20391;-86
2023/10/22 00:23:35;;;;;;;0.20;0.20;;;;;;;21.61;43.41;100802.69;4969541;28;20511;-86
2023/10/22 00:26:01;;;;;;;0.20;0.20;;;;;;;21.70;43.41;100795.84;4969605;28;20406;-84
2023/10/22 00:28:27;;;;;;;0.20;0.20;;;;;;;21.69;43.22;100806.88;4970683;28;20396;-85
2023/10/22 00:30:53;;;;;;;0.40;0.40;;;;;;;21.63;43.41;100811.38;4952575;28;20407;-88
2023/10/22 00:33:18;;;;;;;0.20;0.20;;;;;;;21.68;43.20;100814.16;4968962;28;20558;-86
2023/10/22 00:36:02;;;;;;;0.20;0.20;;;;;;;21.68;43.26;100808.78;4969082;28;20410;-92
2023/10/22 00:38:28;;;;;;;0.30;0.30;;;;;;;21.69;43.31;100807.69;4969168;28;20914;-87
2023/10/22 00:40:54;;;;;;;0.20;0.20;;;;;;;21.70;43.35;100801.25;4971274;28;20402;-85
2023/10/22 00:43:19;;;;;;;2.30;1.00;;;;;;;21.72;43.16;100803.72;4969775;28;20415;-85
2023/10/22 00:45:46;;;;;;;0.10;0.10;;;;;;;21.76;43.10;100799.47;4969605;28;20391;-89
2023/10/22 00:48:12;;;;;;;0.70;0.70;;;;;;;21.77;42.97;100791.13;4969142;28;20399;-89
2023/10/22 00:50:39;;;;;;;0.30;0.30;;;;;;;21.79;43.01;100785.50;4970227;28;20529;-85
2023/10/22 00:53:16;;;;;;;0.15;0.15;;;;;;;21.83;43.03;100789.34;4974057;28;20488;-89
2023/10/22 00:55:47;;;;;;;0.10;0.10;;;;;;;21.82;42.91;100773.38;4978690;28;20467;-86
2023/10/22 00:58:15;;;;;;;0.30;0.30;;;;;;;21.84;42.96;100773.94;4980277;28;20395;-88
2023/10/22 01:00:41;;;;;;;0.20;0.20;;;;;;;21.86;42.64;100755.63;4989251;28;20913;-86
2023/10/22 01:03:07;;;;;;;0.10;0.10;;;;;;;21.90;42.55;100746.00;4974189;28;20416;-89
2023/10/22 01:05:37;;;;;;;0.20;0.20;;;;;;;21.88;42.47;100748.13;4973409;28;20408;-86
2023/10/22 01:08:06;;;;;;;0.30;0.30;;;;;;;21.93;42.44;100753.59;4989530;28;20864;-85
2023/10/22 01:10:35;;;;;;;0.20;0.20;;;;;;;21.93;42.49;100742.78;4972823;28;20820;-86
2023/10/22 01:13:03;;;;;;;0.13;0.13;;;;;;;22.02;42.08;100727.84;4974348;28;20465;-85
2023/10/22 01:15:29;;;;;;;0.30;0.30;;;;;;;22.06;42.00;100726.28;4988855;28;20478;-90
2023/10/22 01:17:55;;;;;;;0.10;0.10;;;;;;;22.11;42.07;100717.44;4975808;28;20490;-85
2023/10/22 01:20:21;;;;;;;0.50;0.50;;;;;;;22.10;41.95;100724.72;4975674;28;20430;-87
2023/10/22 01:22:47;;;;;;;0.10;0.10;;;;;;;22.09;41.92;100719.56;4987742;28;20391;-85
2023/10/22 01:25:12;;;;;;;0.17;0.17;;;;;;;22.09;42.09;100717.72;4973223;28;20394;-88
2023/10/22 01:27:38;;;;;;;0.20;0.20;;;;;;;22.03;42.05;100718.69;4972788;28;20751;-83
2023/10/22 01:30:04;;;;;;;0.20;0.20;;;;;;;22.01;41.83;100723.50;4972509;28;20403;-84
2023/10/22 01:32:30;;;;;;;0.10;0.10;;;;;;;21.99;41.90;100720.25;4972426;28;20762;-85
2023/10/22 01:34:59;;;;;;;0.10;0.10;;;;;;;22.01;41.73;100715.41;4972647;28;20924;-88
2023/10/22 01:37:25;;;;;;;0.10;0.10;;;;;;;22.06;41.79;100720.09;4972357;28;20427;-90
2023/10/22 01:39:52;;;;;;;0.10;0.10;;;;;;;22.03;41.69;100707.06;4988924;28;20383;-86
2023/10/22 01:42:19;;;;;;;0.13;0.13;;;;;;;22.04;42.01;100717.63;4972728;28;20400;-87
2023/10/22 01:44:45;;;;;;;0.47;0.47;;;;;;;22.09;42.09;100715.00;4973775;28;20506;-85
2023/10/22 01:47:13;;;;;;;0.50;0.50;;;;;;;22.14;41.87;100703.44;4973647;28;20383;-88
2023/10/22 01:49:39;;;;;;;1.10;1.10;;;;;;;22.23;41.85;100687.66;4975446;28;20387;-90
2023/10/22 01:52:05;;;;;;;0.30;0.30;;;;;;;22.24;41.86;100697.41;4989702;28;20394;-86
2023/10/22 01:54:30;;;;;;;0.13;0.13;;;;;;;22.26;41.73;100704.22;4985995;28;20422;-86
2023/10/22 01:56:56;;;;;;;0.30;0.30;;;;;;;22.20;41.85;100705.19;4988326;28;20766;-93
2023/10/22 01:59:22;;;;;;;0.20;0.20;;;;;;;22.18;41.98;100709.19;4990895;28;20383;-87
2023/10/22 02:01:47;;;;;;;0.20;0.20;;;;;;;22.15;41.92;100705.91;4988075;28;20395;-85
2023/10/22 02:04:13;;;;;;;0.30;0.30;;;;;;;22.23;42.02;100720.88;4973194;28;20408;-84
2023/10/22 02:06:38;;;;;;;0.30;0.30;;;;;;;22.23;41.85;100731.66;4971321;28;20897;-86
2023/10/22 02:09:04;;;;;;;0.10;0.10;;;;;;;22.20;41.93;100729.47;4971797;28;20391;-84
2023/10/22 02:11:30;;;;;;;0.10;0.10;;;;;;;22.24;41.93;100735.22;4973070;28;20457;-84
2023/10/22 02:13:56;;;;;;;10.70;0.70;;;;;;;22.22;42.05;100734.59;4988103;28;20399;-89
2023/10/22 02:16:23;;;;;;;0.10;0.10;;;;;;;22.29;42.01;100751.50;4971782;28;20403;-84
2023/10/22 02:18:49;;;;;;;0.30;0.30;;;;;;;22.27;42.15;100746.38;4971715;28;20458;-84
2023/10/22 02:21:15;;;;;;;0.10;0.10;;;;;;;22.28;42.08;100745.28;4971938;28;20411;-87
2023/10/22 02:23:41;;;;;;;0.20;0.20;;;;;;;22.35;42.02;100742.41;4970897;28;20418;-89
2023/10/22 02:26:07;;;;;;;0.10;0.10;;;;;;;22.29;41.96;100748.78;4983787;28;20392;-83
2023/10/22 02:28:33;;;;;;;0.25;0.25;;;;;;;22.32;41.97;100751.81;4989810;28;20430;-83
2023/10/22 02:30:59;;;;;;;0.33;0.33;;;;;;;22.27;41.92;100759.03;5005221;28;20408;-87
2023/10/22 02:33:24;;;;;;;0.20;0.20;;;;;;;22.26;42.15;100769.00;4985903;28;20820;-89
2023/10/22 02:35:51;;;;;;;0.20;0.20;;;;;;;22.27;41.78;100767.97;4973324;28;20390;-88
2023/10/22 02:38:18;;;;;;;0.13;0.13;;;;;;;22.28;41.80;100772.28;4971684;28;20458;-89
2023/10/22 02:40:48;;;;;;;0.10;0.10;;;;;;;22.26;41.79;100765.47;4972030;28;20470;-91
2023/10/22 02:43:14;;;;;;;0.10;0.10;;;;;;;22.28;41.93;100782.28;4973050;28;20403;-87
2023/10/22 02:45:54;;;;;;;0.40;0.40;;;;;;;22.29;41.72;100784.72;4972529;28;20394;-86
2023/10/22 02:48:20;;;;;;;0.10;0.10;;;;;;;22.29;41.51;100789.28;4972550;28;20415;-92
2023/10/22 02:50:46;;;;;;;0.10;0.10;;;;;;;22.33;41.40;100785.88;4973310;28;20969;-88
2023/10/22 02:53:13;;;;;;;0.40;0.30;;;;;;;22.23;41.33;100784.84;4973998;28;20401;-87
2023/10/22 02:55:39;;;;;;;0.10;0.10;;;;;;;22.27;41.14;100794.13;4973408;28;20906;-90
2023/10/22 02:58:05;;;;;;;0.70;0.70;;;;;;;22.25;41.26;100797.03;4972204;28;20404;-89
2023/10/22 03:00:30;;;;;;;0.22;0.20;;;;;;;22.31;41.38;100798.81;4971395;28;20403;-88
2023/10/22 03:02:56;;;;;;;0.17;0.17;;;;;;;22.35;41.16;100801.03;4972456;28;20406;-85
2023/10/22 03:05:22;;;;;;;0.10;0.10;;;;;;;22.36;41.14;100789.94;4973836;28;20825;-88
2023/10/22 03:07:47;;;;;;;0.43;0.43;;;;;;;22.37;41.17;100782.69;4979226;28;20435;-86
2023/10/22 03:10:13;;;;;;;0.20;0.20;;;;;;;22.37;41.42;100788.09;4975707;28;20403;-84
2023/10/22 03:12:38;;;;;;;0.38;0.30;;;;;;;22.38;41.46;100793.22;4971833;28;20410;-84
2023/10/22 03:15:04;;;;;;;0.47;0.47;;;;;;;22.38;41.48;100797.81;4973330;28;20399;-86
2023/10/22 03:17:30;;;;;;;0.20;0.20;;;;;;;22.35;41.47;100803.72;4974011;28;20395;-87
2023/10/22 03:19:56;;;;;;;0.10;0.10;;;;;;;22.38;41.60;100803.22;4972712;28;20486;-84
2023/10/22 03:22:22;;;;;;;0.40;0.30;;;;;;;22.35;41.53;100806.44;4973941;28;20760;-87
2023/10/22 03:24:51;;;;;;;0.10;0.10;;;;;;;22.30;41.55;100807.16;4974183;28;20407;-86
2023/10/22 03:27:18;;;;;;;0.13;0.13;;;;;;;22.33;41.59;100812.88;4978646;28;20450;-87
2023/10/22 03:29:44;;;;;;;0.10;0.10;;;;;;;22.39;41.50;100812.97;4992562;28;20392;-89
2023/10/22 03:32:10;;;;;;;0.10;0.10;;;;;;;22.43;41.17;100796.00;4989105;28;20391;-86
2023/10/22 03:34:36;;;;;;;0.20;0.20;;;;;;;22.44;41.01;100803.06;4989389;28;20933;-91
2023/10/22 03:37:04;;;;;;;0.20;0.20;;;;;;;22.31;41.26;100798.00;4993863;28;20406;-92
2023/10/22 03:39:33;;;;;;;0.10;0.10;;;;;;;22.37;41.31;100812.41;4983635;28;20400;-89
2023/10/22 03:41:59;;;;;;;0.10;0.10;;;;;;;22.35;41.18;100811.81;4970442;28;20399;-84
2023/10/22 03:44:25;;;;;;;0.10;0.10;;;;;;;22.36;41.15;100808.03;4972062;28;20411;-89
2023/10/22 03:46:50;;;;;;;0.20;0.20;;;;;;;22.30;41.33;100797.16;4971336;28;20400;-88
2023/10/22 03:49:16;;;;;;;0.40;0.40;;;;;;;22.33;41.53;100796.66;4969662;28;20904;-88
2023/10/22 03:51:41;;;;;;;0.50;0.50;;;;;;;22.30;41.65;100797.16;4969307;28;20400;-89
2023/10/22 03:54:07;;;;;;;0.20;0.20;;;;;;;22.28;41.55;100802.00;4969826;28;20415;-85
2023/10/22 03:56:34;;;;;;;0.30;0.30;;;;;;;22.20;41.67;100794.28;4970254;28;20392;-84
2023/10/22 03:59:00;;;;;;;1.10;0.40;;;;;;;22.25;41.82;100805.13;4971554;28;20925;-91
2023/10/22 04:01:26;;;;;;;0.20;0.20;;;;;;;22.21;41.65;100809.41;4970272;28;20902;-84
2023/10/22 04:03:52;;;;;;;0.30;0.30;;;;;;;22.20;41.74;100807.78;4954020;28;20818;-83
2023/10/22 04:06:18;;;;;;;0.22;0.22;;;;;;;22.17;41.69;100813.66;4985986;28;20404;-88
2023/10/22 04:08:43;;;;;;;0.20;0.20;;;;;;;22.14;41.70;100814.16;4969674;28;20404;-86
2023/10/22 04:11:09;;;;;;;0.22;0.22;;;;;;;22.19;41.51;100826.94;4969743;28;20403;-84
2023/10/22 04:13:35;;;;;;;0.20;0.20;;;;;;;22.19;41.45;100822.34;4969269;28;20438;-84
2023/10/22 04:16:00;;;;;;;0.10;0.10;;;;;;;22.17;41.46;100824.47;4970193;28;20554;-90
2023/10/22 04:18:26;;;;;;;0.10;0.10;;;;;;;22.13;41.11;100826.84;4971501;28;20732;-86
2023/10/22 04:20:51;;;;;;;0.15;0.15;;;;;;;22.07;40.79;100835.09;4970528;28;20464;-85
2023/10/22 04:23:17;;;;;;;0.10;0.10;;;;;;;22.02;40.56;100830.44;4969394;28;20495;-83
2023/10/22 04:25:44;;;;;;;0.10;0.10;;;;;;;22.04;40.46;100822.06;4968865;28;20387;-88
2023/10/22 04:28:10;;;;;;;0.30;0.30;;;;;;;22.13;40.54;100826.03;4969581;28;20392;-84
2023/10/22 04:30:37;;;;;;;0.00;0.00;;;;;;;22.13;40.74;100826.84;4970985;28;20412;-87
2023/10/22 04:33:04;;;;;;;0.20;0.20;;;;;;;22.15;40.69;100834.69;4969155;28;20434;-89
2023/10/22 04:35:31;;;;;;;0.10;0.10;;;;;;;22.10;40.60;100837.31;4969554;28;20427;-83
2023/10/22 04:37:56;;;;;;;0.90;0.50;;;;;;;22.11;40.78;100833.53;4969712;28;20399;-84
2023/10/22 04:40:23;;;;;;;0.10;0.10;;;;;;;22.09;40.57;100822.16;4968832;28;20399;-88
2023/10/22 04:42:49;;;;;;;0.20;0.20;;;;;;;22.09;40.69;100832.94;4970845;28;20582;-83
2023/10/22 04:45:15;;;;;;;0.20;0.20;;;;;;;22.04;40.66;100820.19;4970493;28;20509;-85
2023/10/22 04:47:40;;;;;;;0.20;0.20;;;;;;;22.04;40.76;100816.66;4969918;28;20412;-85
2023/10/22 04:50:06;;;;;;;0.60;0.60;;;;;;;22.07;41.06;100822.41;4969793;28;20403;-88
2023/10/22 04:52:33;;;;;;;2.00;0.40;;;;;;;22.07;41.05;100813.47;4968890;28;20821;-89
2023/10/22 04:55:00;;;;;;;0.30;0.30;;;;;;;22.09;41.06;100808.66;4969117;28;20538;-86
2023/10/22 04:57:29;;;;;;;0.40;0.40;;;;;;;22.07;41.14;100805.38;4969813;28;20525;-84
2023/10/22 04:59:55;;;;;;;0.30;0.30;;;;;;;22.09;41.18;100796.00;4969531;28;20399;-83
2023/10/22 05:02:20;;;;;;;0.20;0.20;;;;;;;22.06;41.23;100796.47;4969542;28;20392;-86
2023/10/22 05:04:49;;;;;;;0.25;0.25;;;;;;;22.17;41.09;100804.75;4972036;28;20419;-89
2023/10/22 05:07:15;;;;;;;0.80;0.50;;;;;;;22.16;41.16;100803.91;4969732;28;20402;-85
2023/10/22 05:09:41;;;;;;;0.80;0.30;;;;;;;22.14;41.17;100795.25;4969569;28;20399;-84
2023/10/22 05:12:07;;;;;;;0.30;0.30;;;;;;;22.14;41.02;100806.03;4969933;28;20490;-87
2023/10/22 05:14:33;;;;;;;0.30;0.30;;;;;;;22.19;40.99;100806.13;4970851;28;20486;-87
2023/10/22 05:16:58;;;;;;;0.37;0.37;;;;;;;22.12;41.27;100789.28;4971419;28;20394;-87
2023/10/22 05:19:24;;;;;;;0.30;0.20;;;;;;;22.22;41.05;100792.16;4974219;28;20474;-83
2023/10/22 05:21:51;;;;;;;0.20;0.20;;;;;;;22.19;41.13;100783.72;4975614;28;20487;-84
2023/10/22 05:24:16;;;;;;;0.55;0.45;;;;;;;22.15;41.02;100781.50;4971080;28;20498;-89
2023/10/22 05:26:42;;;;;;;0.10;0.10;;;;;;;22.14;41.29;100779.03;4972168;28;20783;-84
2023/10/22 05:29:08;;;;;;;0.20;0.20;;;;;;;22.14;41.08;100787.97;4971393;28;21025;-89
2023/10/22 05:31:33;;;;;;;0.30;0.20;;;;;;;22.11;41.16;100784.94;4970554;28;20454;-87
2023/10/22 05:33:59;;;;;;;1.60;0.40;;;;;;;22.17;41.01;100793.94;4969929;28;20396;-85
2023/10/22 05:36:26;;;;;;;0.20;0.20;;;;;;;22.17;41.21;100791.25;4970953;28;20395;-87
2023/10/22 05:38:52;;;;;;;2.40;1.40;;;;;;;22.16;41.02;100806.63;4988529;28;21020;-89
2023/10/22 05:41:25;;;;;;;0.70;0.40;;;;;;;22.10;41.06;100803.03;4978469;28;20902;-84
2023/10/22 05:44:02;;;;;;;0.45;0.45;;;;;;;22.13;41.40;100805.22;4974487;28;20922;-89
2023/10/22 05:46:32;;;;;;;0.40;0.40;;;;;;;22.11;41.30;100799.28;4984655;28;20406;-83
2023/10/22 05:48:58;;;;;;;0.20;0.20;;;;;;;22.17;41.10;100796.66;4974100;28;20453;-85
2023/10/22 05:51:23;;;;;;;0.53;0.53;;;;;;;22.22;41.30;100794.00;4972615;28;20395;-85
2023/10/22 05:53:49;;;;;;;1.10;0.40;;;;;;;22.19;41.26;100808.84;4972758;28;20424;-83
2023/10/22 05:56:16;;;;;;;0.33;0.33;;;;;;;22.22;41.29;100815.63;4972066;28;20388;-86
2023/10/22 05:58:41;;;;;;;0.60;0.60;;;;;;;22.17;41.27;100820.94;4972714;28;20925;-86
2023/10/22 06:01:10;;;;;;;0.20;0.20;;;;;;;22.05;41.11;100823.72;4956774;28;20478;-83
2023/10/22 06:03:36;;;;;;;0.30;0.30;;;;;;;22.04;41.17;100822.06;4973322;28;20411;-88
2023/10/22 06:06:03;;;;;;;0.20;0.20;;;;;;;21.97;41.29;100806.03;4972466;28;20394;-89
2023/10/22 06:08:32;;;;;;;0.43;0.40;;;;;;;22.05;41.18;100813.72;4989053;28;20399;-85
2023/10/22 06:10:57;;;;;;;0.30;0.30;;;;;;;22.11;41.05;100820.88;4971489;28;20380;-86
2023/10/22 06:13:23;;;;;;;0.20;0.20;;;;;;;22.14;40.96;100823.06;4989628;28;20394;-86
2023/10/22 06:15:49;;;;;;;0.20;0.20;;;;;;;22.19;40.89;100803.44;4991030;28;20411;-91
2023/10/22 06:18:14;;;;;;;0.30;0.30;;;;;;;22.28;40.81;100812.78;4987274;28;20720;-83
2023/10/22 06:20:40;;;;;;;0.17;0.17;;;;;;;22.35;40.57;100814.53;4971984;28;20432;-85
2023/10/22 06:23:06;;;;;;;0.20;0.20;;;;;;;22.25;40.55;100809.72;4973198;28;20403;-84
2023/10/22 06:25:33;;;;;;;0.15;0.15;;;;;;;22.26;40.59;100830.28;4973965;28;20406;-89
2023/10/22 06:28:00;;;;;;;0.40;0.27;;;;;;;22.26;40.74;100828.44;4987835;28;20397;-87
2023/10/22 06:30:27;;;;;;;0.32;0.30;;;;;;;22.22;40.82;100829.97;4989039;28;20482;-87
2023/10/22 06:32:55;;;;;;;0.40;0.38;;;;;;;22.12;41.02;100830.59;4975820;28;20391;-85
2023/10/22 06:35:21;;;;;;;0.30;0.20;;;;;;;22.10;40.92;100823.81;4974777;28;20398;-84
2023/10/22 06:37:54;;;;;;;0.10;0.10;;;;;;;22.09;41.25;100847.28;4974742;28;20395;-86
2023/10/22 06:40:21;;;;;;;0.10;0.10;;;;;;;22.04;41.39;100844.50;4958519;28;20396;-89
2023/10/22 06:42:48;;;;;;;0.20;0.20;;;;;;;22.03;41.20;100850.94;4975185;28;21600;-87
2023/10/22 06:45:14;;;;;;;0.20;0.20;;;;;;;21.96;41.53;100847.56;4991046;28;20404;-89
2023/10/22 06:47:46;;;;;;;0.30;0.30;;;;;;;22.01;41.57;100847.69;4977253;28;20387;-88
2023/10/22 06:50:12;;;;;;;0.53;0.43;;;;;;;22.13;41.21;100843.03;4990228;28;20383;-87
2023/10/22 06:52:41;;;;;;;0.60;0.60;;;;;;;22.25;41.03;100834.84;4973557;28;20410;-87
2023/10/22 06:55:07;;;;;;;0.20;0.20;;;;;;;22.25;40.96;100855.63;4977376;28;20412;-88
2023/10/22 06:57:35;;;;;;;0.10;0.10;;;;;;;22.27;41.09;100840.88;4967951;28;20419;-88
2023/10/22 07:00:04;;;;;;;0.20;0.20;;;;;;;22.47;40.86;100858.44;4975084;28;20492;-87
2023/10/22 07:02:33;;;;;;;0.22;0.22;;;;;;;22.63;40.62;100865.72;4975799;28;20403;-88
2023/10/22 07:04:58;;;;;;;0.10;0.10;;;;;;;22.75;40.47;100879.16;4975367;28;20442;-87
2023/10/22 07:07:28;;;;;;;0.17;0.17;;;;;;;22.75;40.41;100878.34;4972381;28;20403;-90
2023/10/22 07:09:53;;;;;;;0.20;0.20;;;;;;;22.82;40.25;100879.00;4978166;28;20434;-88
2023/10/22 07:12:20;;;;;;;0.30;0.20;;;;;;;22.88;40.11;100872.59;4974926;28;20403;-88
2023/10/22 07:14:46;;;;;;;0.10;0.10;;;;;;;22.90;40.22;100865.88;4989836;28;20399;-85
2023/10/22 07:17:14;;;;;;;0.10;0.10;;;;;;;22.98;40.09;100875.44;4985419;28;20400;-87
2023/10/22 07:19:40;;;;;;;0.40;0.40;;;;;;;23.06;40.00;100885.03;4971421;28;20494;-87
2023/10/22 07:22:09;;;;;;;0.50;0.30;;;;;;;23.14;40.07;100875.69;4969501;28;20409;-90
2023/10/22 07:24:36;;;;;;;0.17;0.17;;;;;;;23.26;39.78;100879.09;4977831;28;20586;-90
2023/10/22 07:27:02;;;;;;;0.40;0.20;;;;;;;23.15;39.67;100872.72;4967246;28;20515;-89
2023/10/22 07:29:28;;;;;;;0.40;0.40;;;;;;;23.35;39.83;100884.88;4978236;28;20419;-90
2023/10/22 07:31:54;;;;;;;0.10;0.10;;;;;;;23.44;39.63;100888.78;4977308;28;20411;-87
2023/10/22 07:34:21;;;;;;;0.50;0.35;;;;;;;23.49;39.46;100886.16;4983554;28;20407;-89
2023/10/22 07:36:47;;;;;;;0.30;0.20;;;;;;;23.29;39.15;100876.69;4970736;28;20391;-92
2023/10/22 07:39:13;;;;;;;0.50;0.27;;;;;;;23.27;39.17;100873.44;4983610;28;20438;-94
2023/10/22 07:41:39;;;;;;;0.38;0.38;;;;;;;23.38;39.47;100887.09;4956367;28;20400;-92
2023/10/22 07:44:07;;;;;;;0.20;0.20;;;;;;;23.40;39.38;100883.06;4976336;28;20414;-89
2023/10/22 07:56:54;;;;;;;0.40;0.40;;;;;;;23.70;38.76;100889.91;4961893;28;20542;-87
2023/10/22 07:59:26;;;;;;;0.20;0.20;;;;;;;23.76;38.82;100872.66;4970546;29;20393;-89
2023/10/22 08:01:51;;;;;;;0.10;0.10;;;;;;;23.81;38.60;100875.44;4971023;28;20432;-88
2023/10/22 08:04:18;;;;;;;0.10;0.10;;;;;;;23.85;38.47;100878.47;4975515;29;20985;-88
2023/10/22 08:06:44;;;;;;;0.20;0.20;;;;;;;23.82;38.56;100868.13;4973831;29;20403;-87
2023/10/22 08:09:15;;;;;;;0.30;0.30;;;;;;;23.97;38.38;100864.78;4973521;28;20464;-89
2023/10/22 08:11:46;;;;;;;0.60;0.60;;;;;;;24.11;37.94;100866.00;4971046;29;20404;-85
2023/10/22 08:14:14;;;;;;;0.17;0.17;;;;;;;24.08;37.86;100861.09;4966214;29;20500;-85
2023/10/22 08:16:42;;;;;;;0.20;0.20;;;;;;;24.18;37.66;100866.63;4954015;29;20429;-84
2023/10/22 08:19:08;;;;;;;0.10;0.10;;;;;;;24.34;37.29;100867.53;4955597;29;20765;-89
2023/10/22 08:21:43;;;;;;;0.17;0.17;;;;;;;24.39;37.23;100869.50;4955059;29;20911;-86
2023/10/22 08:24:09;;;;;;;0.10;0.10;;;;;;;24.43;36.83;100857.03;4953394;29;20420;-87
2023/10/22 08:26:37;;;;;;;0.30;0.30;;;;;;;24.71;36.79;100861.34;4952466;29;20389;-85
2023/10/22 08:29:08;;;;;;;0.20;0.20;;;;;;;24.79;36.88;100863.59;4952605;29;20404;-86
2023/10/22 08:31:49;;;;;;;0.20;0.20;;;;;;;24.82;36.86;100856.00;4953488;29;20492;-88
2023/10/22 08:34:14;;;;;;;0.17;0.17;;;;;;;24.87;36.89;100850.63;4953888;29;20400;-86
2023/10/22 08:36:40;;;;;;;0.23;0.23;;;;;;;24.92;36.45;100856.88;4951704;29;20393;-85
2023/10/22 08:39:09;;;;;;;0.20;0.20;;;;;;;24.91;36.59;100849.81;4952822;29;20400;-85
2023/10/22 08:41:44;;;;;;;0.17;0.17;;;;;;;25.05;36.22;100847.47;4951642;29;20397;-85
2023/10/22 08:44:14;;;;;;;0.55;0.55;;;;;;;25.17;36.31;100850.78;4920746;29;20417;-84
2023/10/22 08:46:46;;;;;;;0.10;0.10;;;;;;;25.21;36.12;100858.38;4953032;29;20396;-82
2023/10/22 08:49:17;;;;;;;0.10;0.10;;;;;;;25.26;35.43;100850.28;4952176;29;20475;-83
2023/10/22 08:51:48;;;;;;;0.15;0.15;;;;;;;25.44;35.56;100849.00;4967824;28;20393;-85
2023/10/22 08:54:17;;;;;;;0.82;0.60;;;;;;;25.49;35.75;100857.16;4951881;29;20389;-84
2023/10/22 08:56:46;;;;;;;0.20;0.20;;;;;;;25.50;35.81;100847.94;4953011;28;20504;-84
2023/10/22 08:59:11;;;;;;;0.10;0.10;;;;;;;25.56;35.54;100847.69;4952026;29;20396;-84
2023/10/22 09:01:43;;;;;;;0.17;0.17;;;;;;;25.65;35.65;100852.59;4953067;28;20397;-84
2023/10/22 09:04:09;;;;;;;0.20;0.20;;;;;;;25.46;35.82;100855.81;4951504;29;20413;-83
2023/10/22 09:06:37;;;;;;;0.45;0.45;;;;;;;25.49;35.74;100857.16;4952336;29;20402;-83
2023/10/22 09:09:07;;;;;;;0.43;0.43;;;;;;;25.58;35.31;100852.84;4952038;29;20821;-83
2023/10/22 09:11:52;;;;;;;0.40;0.40;;;;;;;25.73;35.56;100842.03;4951834;28;20400;-84
2023/10/22 09:14:23;;;;;;;0.40;0.38;;;;;;;25.53;35.78;100842.81;4955455;29;20479;-85
2023/10/22 09:16:52;;;;;;;0.40;0.40;;;;;;;25.61;35.94;100838.75;4955980;29;20429;-85
2023/10/22 09:19:39;;;;;;;1.00;0.50;;;;;;;25.54;36.14;100844.41;4955970;29;20407;-85
2023/10/22 09:22:07;;;;;;;0.20;0.20;;;;;;;25.53;36.51;100845.53;4957067;28;20389;-84
2023/10/22 09:24:36;;;;;;;0.10;0.10;;;;;;;25.69;36.49;100840.91;4971615;28;20916;-85
2023/10/22 09:27:09;;;;;;;9.30;0.57;;;;;;;25.89;35.58;100845.59;4957385;28;20871;-84
2023/10/22 09:29:50;;;;;;;0.30;0.30;;;;;;;26.18;35.02;100844.28;4956677;29;20440;-85
2023/10/22 09:32:21;;;;;;;0.10;0.10;;;;;;;26.33;34.67;100838.84;4956419;29;20880;-85
2023/10/22 09:34:47;;;;;;;0.10;0.10;;;;;;;26.36;34.71;100837.47;4955510;29;20783;-84
2023/10/22 09:37:18;;;;;;;0.50;0.50;;;;;;;26.16;35.43;100832.88;4956769;28;20453;-86
2023/10/22 09:39:46;;;;;;;0.10;0.10;;;;;;;26.13;35.46;100826.88;4955097;29;20397;-84
2023/10/22 09:42:17;;;;;;;0.20;0.20;;;;;;;26.24;35.40;100825.00;4957649;28;20959;-83
2023/10/22 09:44:44;;;;;;;4.05;0.77;;;;;;;26.28;34.52;100834.22;4959577;28;20455;-85
2023/10/22 09:47:18;;;;;;;0.15;0.15;;;;;;;26.41;33.83;100821.97;4956984;29;20393;-83
2023/10/22 09:50:00;;;;;;;0.20;0.20;;;;;;;26.54;33.41;100827.94;4954440;29;20404;-84
2023/10/22 09:52:32;;;;;;;0.50;0.50;;;;;;;26.52;33.92;100822.78;4954916;29;20480;-84
2023/10/22 09:55:01;;;;;;;0.20;0.20;;;;;;;26.49;34.31;100813.28;4955840;28;20425;-84
2023/10/22 09:57:32;;;;;;;0.10;0.10;;;;;;;26.72;33.90;100810.25;4955377;29;20401;-84
2023/10/22 10:00:01;;;;;;;0.20;0.20;;;;;;;26.59;34.07;100809.72;4954629;29;20416;-85
2023/10/22 10:02:28;;;;;;;0.20;0.20;;;;;;;26.49;33.97;100812.47;4955989;29;20424;-83
2023/10/22 10:04:59;;;;;;;0.35;0.35;;;;;;;26.46;34.80;100794.00;4960586;28;20492;-83
2023/10/22 10:07:30;;;;;;;0.60;0.30;;;;;;;26.38;35.40;100803.53;4957422;29;20776;-83
2023/10/22 10:10:02;;;;;;;0.20;0.20;;;;;;;26.33;35.70;100804.31;4943488;29;20409;-83
2023/10/22 10:12:31;;;;;;;0.20;0.20;;;;;;;26.48;35.47;100805.41;4960035;29;20389;-85
2023/10/22 10:14:59;;;;;;;2.30;0.80;;;;;;;26.55;35.28;100810.56;4955464;29;20410;-85
2023/10/22 10:17:28;;;;;;;0.20;0.20;;;;;;;26.53;35.57;100808.09;4955621;29;20393;-84
2023/10/22 10:20:23;;;;;;;0.20;0.20;;;;;;;26.70;35.41;100807.81;4955201;29;20745;-83
2023/10/22 10:23:19;;;;;;;0.70;0.57;;;;;;;26.82;34.60;100785.78;4955474;29;20398;-84
2023/10/22 10:25:55;;;;;;;0.20;0.20;;;;;;;26.61;35.27;100788.53;4955459;28;20452;-84
2023/10/22 10:28:39;;;;;;;0.30;0.30;;;;;;;26.69;35.28;100787.97;4954286;29;20405;-84
2023/10/22 10:31:30;;;;;;;0.20;0.20;;;;;;;26.78;34.87;100790.94;4954305;29;20393;-85
2023/10/22 10:34:02;;;;;;;0.13;0.13;;;;;;;26.72;34.81;100783.06;4969973;28;20405;-85
2023/10/22 10:36:34;;;;;;;0.20;0.20;;;;;;;26.95;34.26;100784.34;4954373;29;20396;-84
2023/10/22 10:39:35;;;;;;;0.20;0.20;;;;;;;27.02;33.84;100774.78;4954409;29;20468;-84
2023/10/22 10:42:06;;;;;;;0.20;0.20;;;;;;;27.16;33.71;100758.69;4943561;29;20796;-85
2023/10/22 10:44:54;;;;;;;0.80;0.40;;;;;;;27.25;33.11;100758.91;4953941;29;20424;-85
2023/10/22 10:47:22;;;;;;;0.10;0.10;;;;;;;27.38;32.83;100747.41;4953657;29;20400;-85
2023/10/22 10:49:53;;;;;;;0.17;0.17;;;;;;;27.50;32.85;100752.53;4956020;28;20420;-84
2023/10/22 10:52:25;;;;;;;0.20;0.20;;;;;;;27.61;32.53;100748.63;4954310;29;20397;-84
2023/10/22 10:55:07;;;;;;;0.20;0.20;;;;;;;27.64;32.53;100745.34;4953847;29;20512;-84
2023/10/22 10:57:36;;;;;;;0.20;0.20;;;;;;;27.48;32.96;100746.56;4969509;28;20425;-85
2023/10/22 11:00:09;;;;;;;0.28;0.28;;;;;;;27.58;32.20;100734.78;4953446;29;20461;-85
2023/10/22 11:02:58;;;;;;;0.20;0.20;;;;;;;27.54;32.80;100747.34;4953546;29;20987;-84
2023/10/22 11:05:38;;;;;;;0.40;0.40;;;;;;;27.69;32.85;100743.69;4955388;28;20939;-85
2023/10/22 11:08:11;;;;;;;0.30;0.30;;;;;;;27.78;32.28;100733.78;4953421;29;20862;-84
2023/10/22 11:10:45;;;;;;;0.30;0.30;;;;;;;27.63;32.92;100729.28;4954487;28;20392;-84
2023/10/22 11:13:11;;;;;;;0.73;0.52;;;;;;;27.70;32.50;100726.25;4953685;29;20389;-85
2023/10/22 11:15:40;;;;;;;0.50;0.30;;;;;;;27.83;32.45;100715.50;4953812;29;20408;-85
2023/10/22 11:18:12;;;;;;;0.95;0.40;;;;;;;27.93;31.95;100694.72;4998424;23;20467;-87
2023/10/22 11:20:42;;;;;;;0.30;0.25;;;;;;;27.92;32.40;100713.00;4974930;28;20503;-85
2023/10/22 11:23:18;;;;;;;0.30;0.22;;;;;;;27.91;32.66;100724.19;4994022;28;20477;-85
2023/10/22 11:25:49;;;;;;;0.20;0.20;;;;;;;27.76;32.98;100714.22;4993463;28;20476;-85
2023/10/22 11:28:17;;;;;;;0.20;0.20;;;;;;;27.87;33.28;100721.19;4992551;28;20396;-85
2023/10/22 11:30:43;;;;;;;0.30;0.30;;;;;;;28.04;32.95;100723.53;4993523;28;20382;-85
2023/10/22 11:33:13;;;;;;;0.43;0.38;;;;;;;28.02;33.09;100718.38;4999401;28;20390;-84
2023/10/22 11:35:43;;;;;;;0.32;0.30;;;;;;;27.97;32.97;100715.69;4969840;28;20412;-84
2023/10/22 11:38:21;;;;;;;0.38;0.30;;;;;;;28.00;33.09;100711.56;4980037;28;20391;-82
2023/10/22 11:40:55;;;;;;;0.40;0.40;;;;;;;28.02;33.41;100714.84;4977366;28;20392;-84